Timeline UpdatesTrip UpdatesNews PostsPvt PostsTravel TipsAdmin PostsConv PostsFollowed PostsChat RequestsBlog PostsPNR Posts

Disclaimer
Search
 
 
Wed Jul 30, 2014 18:39:41 ISTHomeTrainsΣChainsAtlasPNRForumGalleryNewsFAQTripsMembersLoginFeedback
No Recent News for this Train
Other Trains in the News **new
Latest...
Detached at Erode Junction to run as separate train till Tirunelveli.
Fri Mar 25, 2011 (08:02PM)
⇐ Return Journey: Train# 16787

16688-Slip/Navyug Express Slip

Dec 12 2013 (3:39AM)
Change Departure Station:
Change Arrival Station:
Post a Train Travel TipPost a Train Travel Tip **new
Post a Comment/Question/Picture/VideoPost a Comment/Question/Picture/Video
Pantry/Catering
✓ Pantry Car Avbl
✓ Catering Avbl
PC will available till ED/Erode Juntion
Loco/Rake Reversals
ED/Erode Junction (4);
RSA - Rake Sharing
NO RSA
Rake/Coach Composition
Coach postions:; JAT-ED ==>ENG-SRD-UR-UR-A1-B2-B1-S1-S2-S3-S4-S5-PC-SRD-S6-S7-S8-S9-A2-UR-SLR ; Entry# 962626; Slip coaches from ED to TEN==>; S6-S7-S8-S9-A2-UR-SLR-ENG
Loco
WDM3A-TKD Shed (JAT-NDLS) WAP4-ED Shed (NDLS-ED)
News    PNR    Forum    Time-Table    Availability    Fare Chart    Map    Arr/Dep History    Trips    Gallery    ΣChains    X/O    Timeline    
Travel Time: 4h 33m    9 halts    Distance: 251 km    Avg Speed: 55 km/hr
Type: Mail/Express
Zone: SR/Southern
Departs @ 23:45 (Avg 1h 23m late)
Platform# 2
    T  
Jammu Tawi/JAT 
Arrives @ 04:18 +1 night (Avg 1h 31m late)
Platform# 1
     F 
Phillaur Junction/PHR 

9 halts. 46 intermediate Stations between Jammu Tawi and Phillaur Junction

Show ALL intermediate Stations  Show Old Time-Table

#CodeStation NameX/OArrivesAvgDepartsAvgHaltPFDay#KmSpeedElevZoneAddress
1JAT»Jammu Tawi (3)»  -23:45+1:23210.065337mNRJammu 180002, Jammu and Kashmir
2SMBXSamba (2)  00:15+1:3200:17+1:322m1232.764365mNRDist. Samba, Jammu and Kashmir
3KTHUKathua (2)  00:58+1:3801:00+1:382m2276.349396mNRdistt. kathua, Jammu and Kashmir
4MDPBMadhopur Punjab (2)  01:10+1:3901:12+1:392m1284.456357mNRMadhopur, Punjab
5PTKCPathankot Cantt (3)  01:28+1:4901:33+1:465m1299.457328mNRPathankot By Pass Ph:0186-2251594, Punjab
6MEXMukerian (3)  02:15+1:4002:17+1:402m12139.353257mNRMukerian distt. hosiharpur, Punjab
7DZADasuya (2)X  02:34+1:3902:36+1:392m12154.358251mNRDasuya distt. hoshiarpur, Punjab
8TDOTanda Urmar (3)  02:52+1:3802:54+1:382m22169.762239mNRUrmar Tanda, Punjab
9JRCJalandhar Cantt. Junction (3)X  03:35+1:3103:40+1:335m32211.954239mNRNear Rama Mandi, Punjab
10PGWPhagwara Junction (3)  03:58+1:3004:00+1:292m12228.275245mNRPhagwara, Punjab
11PHR•Phillaur Junction (3)•X  04:18+1:3104:20+1:292m12250.820246mNRPhillaur, Punjab
12LDHLudhiana Junction (7)X  05:00+1:0805:15+1:1015m52263.963246mNRLudhiana 141001, Punjab
13QRPKila Raipur (1)  05:32+1:2705:34+1:282m12281.651262mNRDelhon Pakhowal Rd, Punjab
14AHHAhmadgarh (1)  05:43+1:2905:45+1:302m12289.343256mNRAhmedgarh, Punjab
15METMalerkotla (2)  06:13+1:2606:15+1:292m--2309.150248mNRMalerkotla., Punjab
16DUIDhuri Junction (4)X  06:35+1:3607:00+1:2225m--2326.064248mNRDhuri, Punjab
17SAGSangrur (2)X  07:15+1:2707:17+1:282m12342.035239mNRSangrur, Punjab
18SFMSunam (1)  07:39+1:1807:41+1:222m12354.871235mNRSunam, Punjab
19LHALehra Gaga (1)  07:59+1:2308:01+1:242m12376.119227mNRSangrur, Punjab
20JHLJakhal Junction  08:55+5909:00+1:015m--2393.067225mNRJakhal, Haryana
21TUNTohana (2)  09:11+1:0509:13+1:052m--2405.261232mNRTohana, Haryana
22NRWNarwana Junction (4)  09:38+1:0309:40+1:032m--2430.765235mNRWay to Narwana, Haryana
23UCAUchana  09:54+1:2009:56+1:202m--2445.958225mNRDistrict Jind, Haryana
24BZOBarsola  10:06+1:0210:08+1:042m--2455.534224mNRDistrict Jind, Haryana
25JINDJind Junction (3)X  10:24+5810:27+1:023m--2464.667222mNR126102., Haryana
26JNAJulana  10:50+1:0510:52+1:152m--2490.336226mNRJulana, Haryana
27ROKRohtak Junction (3)  11:45+1:0111:47+1:042m--2521.776220mNRRohtak, Haryana
28BGZBahadurgarh  12:19+1:0412:21+1:042m--2562.034220mNRBahadurgarh, Haryana
29SSBShakur Basti  12:56+5412:58+572m--2581.918216mNRPitampura, Delhi NCT
30NDLSNew Delhi (16)X13:35+1:1814:30+1:1255m92592.829215mNRNew Delhi, Delhi NCT
31NZMDelhi Hazrat Nizamuddin (7)  14:45+1:4014:55+1:5010m42600.229209mNRNizamuddin East/Sarai KaleKhan Bus Terminal, Delhi NCT
32FDBFaridabad (4)X  15:38+2:1315:40+2:122m32620.949206mNRold Faridabad, Haryana
33AGCAgra Cantt. (6)  19:05+5719:10+595m12787.890174mNCRAgra, Uttar Pradesh
34DHODholpur Junction (3)X  19:45+1:4119:47+1:422m32840.462177mNCRDholpur, Rajasthan
35GWLGwalior Junction (4)  20:50+1:4820:55+1:495m12905.862214mNCRGwalior, Madhya Pradesh
36JHSJhansi Junction (7)X  22:30+1:5022:40+1:5610m--21003.569259mNCRJhansi, Uttar Pradesh
37BPLBhopal Junction (6)X  02:55+1:3603:00+1:375m131295.338497mWCRBhopal, Madhya Pradesh
38ETItarsi Junction (7)X  05:25+1:0205:30+1:085m--31387.058329mWCRItarsi 461111, Madhya Pradesh
39NGPNagpur Junction (8)  10:35+1:0710:45+1:1010m231684.274314mCRNagpur 440001, Maharashtra
40SEGMSewagram Junction (5)  11:47+1:1811:49+1:182m--31760.466279mCRWardha, Maharashtra
41CDChandrapur Maharashtra (3)  13:36+1:2013:38+1:202m131879.016194mCRChandrapur 442401, Maharashtra
42BPQBalharshah Junction (5)  14:30+4414:40+5110m331892.774188mCRBallarpur. Ph : 07172 - 240341, Maharashtra
43RDMRamagundam (3)  16:35+1:1116:37+1:102m232034.550170mSCRKarimnagar Dist. Ph : 08728 - 255237, Telangana
44WLWarangal (3)X  18:38+1:0018:43+585m132135.767271mSCRWarangal., Telangana
45KMTKhammam (2)X  20:19+1:0120:20+1:071m132243.331118mSCRKhammam 507001, Telangana
46BZAVijayawada Junction (10)X  23:35+1823:45+2310m732343.67524mSCRVijayawada 520001, Andhra Pradesh
47TELTenali Junction (5)X  00:10+3300:12+332m242374.96916mSCRTel: 08644-227834, Andhra Pradesh
48OGLOngole (3)  01:45+3501:47+352m342481.97712mSCROngole, Andhra Pradesh
49NLRNellore (4)  03:18-03:20-2m342598.73421mSCRNellore, Andhra Pradesh
50GDRGudur Junction (3)  04:28+1204:30+122m142637.17119mSCRGudur, Andhra Pradesh
51RURenigunta Junction (5)X  05:40+3805:50+4110m242720.540113mSCRChittoor District, Andhra Pradesh
52TPTYTirupati Main (5)  06:05+4806:10+515m242730.455150mSCRChittoor Distt, Andhra Pradesh
53CTOChittoor (3)  07:28+4207:30+432m--42802.323305mSCR517001., Andhra Pradesh
54KPDKatpadi Junction (5)X  08:55+608:57+82m342835.471213mSRVellore 632007, Tamil Nadu
55JTJJolarpettai Junction (5)X  10:08+710:10+92m--42919.280405mSRJolarpettai, Tamil Nadu
56SASalem Junction (6)  11:40+2511:45+245m--43039.453283mSRSalem, Tamil Nadu
57EDErode Junction (4)↵¶12:55+1313:40+1045m343101.158175mSRErode ph.no: 0424-2256111, Tamil Nadu
58KRRKarur Junction (5)  14:47-14:50-3m--43166.140121mSRKarur Junction ph.no . 04324-274106, Tamil Nadu
59TPJTiruchchirappalli Junction (8)  16:45-16:50-5m143242.48185mSRTiruchchirapalli ph.no.0431-2413363, Tamil Nadu
60DGDindigul Junction (6)  18:00-18:05-5m--43336.774287mSRDindigul ph.no.0451-2322045, Tamil Nadu
61KQNKodaikanal Road (4)  18:23-18:25-2m--43358.960242mSRDIndigal Dist, Tamil Nadu
62MDUMadurai Junction (6)  19:05-19:10-5m--43399.174139mSRMadurai 625001, Tamil Nadu
63VPTVirudunagar Junction (4)X  19:45-19:47-2m--43442.339108mSRVirudunagar, Tamil Nadu
64SRTSatur (2)X  20:29-20:31-2m--43469.64665mSRPh No:04562 - 260243, Tamil Nadu
65CVPKovilpattiX  20:59-21:01-2m--43491.01890mSRKovilpatti, Tamil Nadu
66MEJVanchi Maniyachchi Junction (3)  22:59-23:00-1m--43527.21970mSRThoothukudi, Tamil Nadu
67TENTirunelveli Junction (5)  00:30----53555.6-45mSRTirunelveli-627001, Tamil Nadu
Scroll to Top
Scroll to Bottom